Terminal Aerodrome Forecast
Issued by NWS Duluth, MN

Home | Current Version | Previous Version | Text Only | Print | Product List | Glossary On
Versions: 1 2 3 4 5 6 7 8 9 10 11 12 13 14 15 16 17 18 19 20
837
FTUS43 KDLH 241139
TAFINL
TAF
KINL 241139Z 2412/2512 18004KT P6SM SKC
     FM241700 18012KT P6SM SCT050
     FM250100 15005KT P6SM SCT250
     FM250500 18006KT P6SM SCT250 WS020/20040KT=

USA.gov is the U.S. government's official web portal to all federal, state and local government web resources and services.